KTOL

Toledo Express Airport

Toledo, Ohio, USA
METAR KTOL 191252Z 16003KT 8SM CLR M02/M04 A3002 RMK AO2 SLP175 T10171044
Observed Flight Rules
Dec-19 @ 12:52 UTC (49 minutes ago) Visual Flight Rules
Wind Visibility Clouds
160° at 3 knots 8 miles
  • Clear skies
Temperatures Readings
Current -2°C / 28°F
Dewpoint -4°C / 25°F
Humidity 86%
Altimeter 30.02" Hg
Pressure 1017.5 hPa
Elevation 210
METAR KTOL 191252Z 16003KT 8SM CLR M02/M04 A3002 RMK AO2 SLP175 T10171044
Observed Flight Rules
Dec-19 @ 12:52 UTC
(49 minutes ago)
VFR
Wind Visibility
160° at 3 knots 8 miles
Clouds
  • Clear skies
Temperature Dewpoint
-2°C / 28°F -4°C / 25°F
Humidity Altimeter Pressure
86% 30.02" Hg 1017.5 hPa